createdAt,value
2019-04-21T00:00:14.941Z,95584.89
2019-04-21T00:02:47.616Z,95583.83
2019-04-21T00:05:38.514Z,95580.05
2019-04-21T00:08:27.808Z,95575.45
2019-04-21T00:10:51.343Z,95579.42
2019-04-21T00:13:18.997Z,95570.53
2019-04-21T00:15:46.763Z,95577.58
2019-04-21T00:18:40.839Z,95570.83
2019-04-21T00:21:17.519Z,95563.66
2019-04-21T00:23:58.413Z,95557.06
2019-04-21T00:26:33.513Z,95547.96
2019-04-21T00:29:16.411Z,95544.57
2019-04-21T00:31:40.868Z,95537.62
2019-04-21T00:33:58.364Z,95533.92
2019-04-21T00:36:43.037Z,95534.56
2019-04-21T00:39:37.080Z,95534.56
2019-04-21T00:42:05.673Z,95528.94
2019-04-21T00:44:29.540Z,95530.36
2019-04-21T00:47:18.032Z,95540.81
2019-04-21T00:49:52.177Z,95538.78
2019-04-21T00:53:13.126Z,95545.05
2019-04-21T00:55:45.981Z,95530.41
2019-04-21T00:58:19.501Z,95531.27
2019-04-21T01:00:51.378Z,95523.42
2019-04-21T01:03:26.781Z,95521.17
2019-04-21T01:05:57.598Z,95526.59
2019-04-21T01:08:33.966Z,95520.92
2019-04-21T01:11:11.697Z,95525.63
2019-04-21T01:13:49.747Z,95520.94
2019-04-21T01:16:21.008Z,95519.15
2019-04-21T01:18:51.787Z,95515.11
2019-04-21T01:21:13.955Z,95513.63
2019-04-21T01:23:42.266Z,95515.69
2019-04-21T01:26:29.612Z,95510.54
2019-04-21T01:29:05.397Z,95510.97
2019-04-21T01:31:42.140Z,95509.81
2019-04-21T01:34:23.375Z,95505.82
2019-04-21T01:36:51.417Z,95502.31
2019-04-21T01:39:35.018Z,95499.06
2019-04-21T01:42:04.967Z,95496.98
2019-04-21T01:44:43.126Z,95496.55
2019-04-21T01:47:14.496Z,95494.97
2019-04-21T01:49:36.992Z,95487.90
2019-04-21T01:52:37.260Z,95491.09
2019-04-21T01:55:12.364Z,95485.53
2019-04-21T01:57:57.592Z,95493.34
2019-04-21T02:00:46.976Z,95487.59
2019-04-21T02:03:41.725Z,95485.94
2019-04-21T02:06:06.354Z,95480.17
2019-04-21T02:08:34.542Z,95484.77
2019-04-21T02:11:12.551Z,95500.06
2019-04-21T02:13:50.209Z,95489.37
2019-04-21T02:16:16.922Z,95484.70
2019-04-21T02:18:49.441Z,95487.05
2019-04-21T02:21:20.373Z,95485.16
2019-04-21T02:24:05.055Z,95486.36
2019-04-21T02:26:36.146Z,95472.84
2019-04-21T02:29:15.504Z,95471.06
2019-04-21T02:31:57.095Z,95474.19
2019-04-21T02:34:25.311Z,95463.55
2019-04-21T02:37:23.975Z,95466.97
2019-04-21T02:39:46.900Z,95458.73
2019-04-21T02:42:09.707Z,95464.83
2019-04-21T02:44:51.926Z,95458.59
2019-04-21T02:47:31.171Z,95450.17
2019-04-21T02:52:39.300Z,95458.95
2019-04-21T02:55:16.512Z,95458.91
2019-04-21T02:57:43.843Z,95451.61
2019-04-21T03:03:09.332Z,95455.50
2019-04-21T03:06:18.524Z,95456.98
2019-04-21T03:08:44.324Z,95446.64
2019-04-21T03:13:57.342Z,95447.18
2019-04-21T03:19:15.815Z,95440.91
2019-04-21T03:21:28.996Z,95437.95
2019-04-21T03:24:08.083Z,95435.66
2019-04-21T03:26:53.625Z,95444.45
2019-04-21T03:29:22.412Z,95445.13
2019-04-21T03:34:51.546Z,95442.95
2019-04-21T03:39:37.184Z,95431.80
2019-04-21T03:42:27.035Z,95432.28
2019-04-21T03:44:44.938Z,95428.21
2019-04-21T04:01:08.023Z,95426.76
2019-04-21T04:04:14.812Z,95429.45
2019-04-21T04:07:21.239Z,95432.70
2019-04-21T04:09:45.121Z,95431.74
2019-04-21T04:12:13.181Z,95423.33
2019-04-21T04:17:25.536Z,95427.68
2019-04-21T04:20:24.228Z,95417.31
2019-04-21T04:22:37.929Z,95422.80
2019-04-21T04:25:13.399Z,95424.66
2019-04-21T04:27:59.799Z,95431.12
2019-04-21T04:30:21.667Z,95422.84
2019-04-21T04:32:46.323Z,95418.63
2019-04-21T04:35:45.804Z,95424.78
2019-04-21T04:38:05.183Z,95417.99
2019-04-21T04:40:50.952Z,95427.05
2019-04-21T04:45:54.067Z,95421.70
2019-04-21T04:48:28.016Z,95419.47
2019-04-21T04:53:44.262Z,95412.66
2019-04-21T04:56:12.430Z,95417.19
2019-04-21T05:03:57.041Z,95417.36
2019-04-21T05:06:41.939Z,95412.34
2019-04-21T05:14:17.142Z,95409.22
2019-04-21T05:19:20.946Z,95415.34
2019-04-21T05:21:55.389Z,95411.59
2019-04-21T05:24:25.464Z,95417.48
2019-04-21T05:26:55.362Z,95421.61
2019-04-21T05:29:40.280Z,95417.23
2019-04-21T05:32:32.000Z,95413.38
2019-04-21T05:35:10.892Z,95411.09
2019-04-21T05:37:50.442Z,95407.34
2019-04-21T05:40:31.906Z,95414.41
2019-04-21T05:43:10.858Z,95411.06
2019-04-21T05:45:47.404Z,95412.45
2019-04-21T05:48:37.703Z,95411.05
2019-04-21T05:51:03.679Z,95410.27
2019-04-21T05:53:36.210Z,95417.42
2019-04-21T05:56:16.022Z,95421.30
2019-04-21T05:58:50.499Z,95422.45
2019-04-21T06:06:34.184Z,95427.96
2019-04-21T06:09:08.250Z,95426.29
2019-04-21T06:11:44.283Z,95425.77
2019-04-21T06:14:20.313Z,95427.57
2019-04-21T06:16:55.574Z,95427.42
2019-04-21T06:19:35.237Z,95420.79
2019-04-21T06:21:57.521Z,95425.42
2019-04-21T06:24:42.299Z,95431.45
2019-04-21T06:27:22.896Z,95417.42
2019-04-21T06:29:46.751Z,95420.59
2019-04-21T06:32:37.506Z,95416.73
2019-04-21T06:42:43.221Z,95415.18
2019-04-21T06:45:20.434Z,95412.50
2019-04-21T06:48:00.886Z,95413.78
2019-04-21T06:50:31.603Z,95410.73
2019-04-21T06:53:05.656Z,95411.99
2019-04-21T06:55:33.280Z,95404.73
2019-04-21T06:58:10.108Z,95411.05
2019-04-21T07:00:41.318Z,95402.58
2019-04-21T07:03:25.037Z,95405.72
2019-04-21T07:05:57.197Z,95405.92
2019-04-21T07:11:03.953Z,95409.67
2019-04-21T07:13:30.877Z,95409.51
2019-04-21T07:16:10.765Z,95413.78
2019-04-21T07:18:58.486Z,95407.59
2019-04-21T07:21:21.940Z,95411.66
2019-04-21T07:23:59.136Z,95407.49
2019-04-21T07:26:32.903Z,95406.97
2019-04-21T07:29:07.855Z,95409.13
2019-04-21T07:31:47.271Z,95399.44
2019-04-21T07:34:19.716Z,95406.62
2019-04-21T07:39:22.373Z,95403.12
2019-04-21T07:41:53.893Z,95400.47
2019-04-21T07:44:29.094Z,95406.68
2019-04-21T07:47:05.014Z,95403.23
2019-04-21T07:50:07.527Z,95395.09
2019-04-21T07:53:06.993Z,95395.80
2019-04-21T07:57:55.972Z,95392.15
2019-04-21T08:00:44.737Z,95390.64
2019-04-21T08:03:15.629Z,95388.58
2019-04-21T08:05:47.086Z,95381.27
2019-04-21T08:08:15.723Z,95383.63
2019-04-21T08:10:52.344Z,95375.41
2019-04-21T08:13:38.207Z,95375.05
2019-04-21T08:16:04.750Z,95383.42
2019-04-21T08:18:42.406Z,95377.34
2019-04-21T08:21:11.034Z,95385.41
2019-04-21T08:23:48.411Z,95381.71
2019-04-21T08:26:27.628Z,95378.36
2019-04-21T08:29:01.531Z,95374.06
2019-04-21T08:31:38.408Z,95379.87
2019-04-21T08:34:08.362Z,95377.84
2019-04-21T08:36:40.326Z,95376.38
2019-04-21T08:39:14.986Z,95377.17
2019-04-21T08:41:51.082Z,95374.61
2019-04-21T08:44:25.649Z,95372.52
2019-04-21T08:46:58.822Z,95377.94
2019-04-21T08:49:35.087Z,95378.39
2019-04-21T08:52:14.800Z,95367.91
2019-04-21T08:54:52.131Z,95362.09
2019-04-21T08:57:50.830Z,95366.09
2019-04-21T09:00:32.415Z,95368.10
2019-04-21T09:03:11.714Z,95368.14
2019-04-21T09:05:40.976Z,95364.73
2019-04-21T09:08:20.256Z,95363.16
2019-04-21T09:10:51.722Z,95361.16
2019-04-21T09:13:24.515Z,95356.63
2019-04-21T09:15:59.432Z,95356.69
2019-04-21T09:18:26.629Z,95350.19
2019-04-21T09:21:14.915Z,95348.59
2019-04-21T09:23:45.274Z,95347.25
2019-04-21T09:26:18.599Z,95350.73
2019-04-21T09:28:49.425Z,95341.77
2019-04-21T09:31:10.711Z,95343.11
2019-04-21T09:33:49.008Z,95346.98
2019-04-21T09:36:22.052Z,95342.59
2019-04-21T09:39:00.065Z,95337.58
2019-04-21T09:41:30.917Z,95340.29
2019-04-21T09:44:08.748Z,95336.48
2019-04-21T09:46:44.280Z,95322.09
2019-04-21T09:49:18.652Z,95325.77
2019-04-21T09:51:48.383Z,95324.19
2019-04-21T09:54:27.985Z,95323.06
2019-04-21T09:57:01.623Z,95313.79
2019-04-21T09:59:35.588Z,95313.19
2019-04-21T10:02:11.881Z,95313.31
2019-04-21T10:04:40.133Z,95313.50
2019-04-21T10:07:24.335Z,95313.72
2019-04-21T10:09:47.985Z,95309.81
2019-04-21T10:12:23.506Z,95296.66
2019-04-21T10:14:57.408Z,95296.41
2019-04-21T10:17:43.853Z,95293.89
2019-04-21T10:20:20.219Z,95291.99
2019-04-21T10:22:53.183Z,95293.26
2019-04-21T10:25:26.194Z,95284.56
2019-04-21T10:27:59.205Z,95283.20
2019-04-21T10:30:36.378Z,95282.41
2019-04-21T10:33:10.269Z,95278.88
2019-04-21T10:35:43.430Z,95270.06
2019-04-21T10:38:26.130Z,95270.00
2019-04-21T10:40:51.746Z,95270.81
2019-04-21T10:43:27.469Z,95260.84
2019-04-21T10:46:01.233Z,95261.36
2019-04-21T10:48:36.221Z,95256.91
2019-04-21T10:51:08.979Z,95257.77
2019-04-21T10:53:45.256Z,95255.27
2019-04-21T10:56:27.217Z,95253.28
2019-04-21T10:58:56.254Z,95248.30
2019-04-21T11:01:31.476Z,95248.27
2019-04-21T11:04:38.549Z,95246.48
2019-04-21T11:07:33.471Z,95236.25
2019-04-21T11:10:04.453Z,95243.37
2019-04-21T11:12:39.368Z,95239.11
2019-04-21T11:15:11.726Z,95237.97
2019-04-21T11:17:45.584Z,95229.70
2019-04-21T11:20:19.882Z,95234.81
2019-04-21T11:22:53.657Z,95225.92
2019-04-21T11:25:26.532Z,95226.27
2019-04-21T11:28:00.764Z,95223.72
2019-04-21T11:30:35.858Z,95224.67
2019-04-21T11:33:11.252Z,95215.52
2019-04-21T11:35:45.221Z,95209.02
2019-04-21T11:38:26.637Z,95210.63
2019-04-21T11:40:58.115Z,95215.48
2019-04-21T11:43:30.990Z,95215.80
2019-04-21T11:46:04.671Z,95212.59
2019-04-21T11:48:37.752Z,95211.92
2019-04-21T11:51:10.932Z,95208.52
2019-04-21T11:53:43.977Z,95207.77
2019-04-21T11:56:17.005Z,95198.66
2019-04-21T11:58:50.099Z,95206.22
2019-04-21T12:01:23.401Z,95207.55
2019-04-21T12:03:57.841Z,95204.08
2019-04-21T12:06:37.770Z,95197.58
2019-04-21T12:09:09.531Z,95202.46
2019-04-21T12:11:43.235Z,95199.02
2019-04-21T12:14:16.380Z,95198.22
2019-04-21T12:16:50.800Z,95200.55
2019-04-21T12:19:22.917Z,95192.38
2019-04-21T12:22:05.275Z,95191.34
2019-04-21T12:24:33.403Z,95189.64
2019-04-21T12:27:07.877Z,95190.40
2019-04-21T12:29:41.861Z,95183.09
2019-04-21T12:32:33.985Z,95180.73
2019-04-21T12:35:08.198Z,95186.08
2019-04-21T12:37:42.640Z,95177.63
2019-04-21T12:40:16.833Z,95180.09
2019-04-21T12:42:50.475Z,95176.25
2019-04-21T12:45:24.019Z,95172.41
2019-04-21T12:47:58.016Z,95168.19
2019-04-21T12:50:32.085Z,95164.38
2019-04-21T12:53:05.388Z,95164.61
2019-04-21T12:55:42.783Z,95159.61
2019-04-21T12:58:13.156Z,95153.67
2019-04-21T13:00:47.029Z,95155.33
2019-04-21T13:03:22.101Z,95154.90
2019-04-21T13:05:58.020Z,95151.66
2019-04-21T13:08:42.450Z,95152.33
2019-04-21T13:11:06.824Z,95154.59
2019-04-21T13:13:42.018Z,95151.05
2019-04-21T13:16:17.411Z,95144.56
2019-04-21T13:18:51.208Z,95141.68
2019-04-21T13:21:24.347Z,95135.61
2019-04-21T13:23:57.345Z,95135.94
2019-04-21T13:26:42.193Z,95136.30
2019-04-21T13:29:04.194Z,95125.92
2019-04-21T13:31:36.379Z,95125.84
2019-04-21T13:34:10.500Z,95123.06
2019-04-21T13:36:43.788Z,95122.06
2019-04-21T13:40:09.978Z,95114.44
2019-04-21T13:42:31.441Z,95116.25
2019-04-21T13:44:59.229Z,95103.13
2019-04-21T13:47:32.373Z,95104.41
2019-04-21T13:50:07.158Z,95101.18
2019-04-21T13:52:40.687Z,95092.05
2019-04-21T13:55:16.336Z,95089.81
2019-04-21T13:57:50.493Z,95090.14
2019-04-21T14:00:24.139Z,95089.34
2019-04-21T14:02:58.748Z,95084.64
2019-04-21T14:05:32.693Z,95085.42
2019-04-21T14:08:07.292Z,95078.28
2019-04-21T14:10:41.704Z,95078.81
2019-04-21T14:13:16.439Z,95078.38
2019-04-21T14:15:51.660Z,95073.28
2019-04-21T14:18:24.707Z,95077.30
2019-04-21T14:20:57.670Z,95075.36
2019-04-21T14:23:36.025Z,95073.98
2019-04-21T14:26:06.914Z,95070.58
2019-04-21T14:28:40.967Z,95067.73
2019-04-21T14:31:16.582Z,95064.84
2019-04-21T14:33:50.058Z,95061.18
2019-04-21T14:36:23.052Z,95063.95
2019-04-21T14:38:56.585Z,95058.77
2019-04-21T14:41:30.366Z,95057.81
2019-04-21T14:44:04.681Z,95055.94
2019-04-21T14:46:58.471Z,95049.61
2019-04-21T14:49:57.821Z,95047.11
2019-04-21T14:52:34.926Z,95045.15
2019-04-21T14:55:14.381Z,95040.16
2019-04-21T14:57:47.394Z,95038.58
2019-04-21T15:00:22.885Z,95035.70
2019-04-21T15:02:56.003Z,95028.49
2019-04-21T15:05:29.389Z,95017.32
2019-04-21T15:08:03.398Z,95020.53
2019-04-21T15:10:36.766Z,95021.36
2019-04-21T15:13:10.020Z,95012.32
2019-04-21T15:15:43.714Z,95011.09
2019-04-21T15:18:16.906Z,95010.83
2019-04-21T15:20:50.702Z,95009.12
2019-04-21T15:23:26.552Z,95006.33
2019-04-21T15:25:59.906Z,95005.25
2019-04-21T15:28:35.319Z,95003.98
2019-04-21T15:31:08.248Z,94998.25
2019-04-21T15:33:41.372Z,94993.19
2019-04-21T15:36:15.049Z,94993.61
2019-04-21T15:38:49.652Z,94997.12
2019-04-21T15:41:22.738Z,94983.72
2019-04-21T15:43:56.688Z,94985.97
2019-04-21T15:46:33.451Z,94985.23
2019-04-21T15:49:05.086Z,94978.80
2019-04-21T15:51:40.010Z,94983.11
2019-04-21T15:54:12.642Z,94986.06
2019-04-21T15:57:00.708Z,94970.41
2019-04-21T16:00:00.347Z,94975.97
2019-04-21T16:02:42.548Z,94980.47
2019-04-21T16:05:16.948Z,94973.03
2019-04-21T16:07:50.019Z,94968.83
2019-04-21T16:10:34.576Z,94972.52
2019-04-21T16:13:01.546Z,94965.59
2019-04-21T16:15:34.718Z,94965.31
2019-04-21T16:18:07.623Z,94968.77
2019-04-21T16:20:41.806Z,94963.98
2019-04-21T16:23:15.008Z,94958.00
2019-04-21T16:25:48.738Z,94956.37
2019-04-21T16:28:21.763Z,94949.92
2019-04-21T16:30:56.140Z,94950.97
2019-04-21T16:33:29.331Z,94936.53
2019-04-21T16:36:02.271Z,94936.31
2019-04-21T16:38:35.521Z,94925.98
2019-04-21T16:41:12.129Z,94921.23
2019-04-21T16:43:45.114Z,94925.54
2019-04-21T16:46:18.002Z,94928.22
2019-04-21T16:48:51.694Z,94925.23
2019-04-21T16:51:24.612Z,94920.20
2019-04-21T16:54:15.713Z,94917.28
2019-04-21T16:56:54.823Z,94915.08
2019-04-21T16:59:32.702Z,94919.48
2019-04-21T17:06:11.185Z,94907.09
2019-04-21T17:08:45.022Z,94910.61
2019-04-21T17:11:23.790Z,94910.25
2019-04-21T17:13:54.065Z,94910.03
2019-04-21T17:16:52.330Z,94902.98
2019-04-21T17:19:13.576Z,94902.61
2019-04-21T17:21:35.685Z,94889.98
2019-04-21T17:24:10.663Z,94894.66
2019-04-21T17:26:47.789Z,94892.23
2019-04-21T17:29:21.212Z,94885.05
2019-04-21T17:31:55.350Z,94888.69
2019-04-21T17:34:31.592Z,94881.48
2019-04-21T17:37:03.506Z,94882.11
2019-04-21T17:39:36.695Z,94875.91
2019-04-21T17:42:19.741Z,94883.06
2019-04-21T17:44:45.417Z,94877.16
2019-04-21T17:47:34.167Z,94876.66
2019-04-21T17:50:25.499Z,94880.39
2019-04-21T17:53:08.734Z,94876.12
2019-04-21T17:55:40.726Z,94877.22
2019-04-21T17:58:27.851Z,94881.17
2019-04-21T18:01:14.001Z,94878.60
2019-04-21T18:03:56.941Z,94881.03
2019-04-21T18:06:10.131Z,94882.32
2019-04-21T18:09:04.378Z,94881.91
2019-04-21T18:11:37.217Z,94880.60
2019-04-21T18:13:51.534Z,94879.87
2019-04-21T18:16:31.585Z,94884.26
2019-04-21T18:18:59.382Z,94881.93
2019-04-21T18:21:46.920Z,94885.00
2019-04-21T18:24:20.934Z,94885.62
2019-04-21T18:26:56.881Z,94884.28
2019-04-21T18:29:27.605Z,94892.09
2019-04-21T18:32:01.121Z,94893.56
2019-04-21T18:35:02.420Z,94891.55
2019-04-21T18:38:01.933Z,94893.02
2019-04-21T18:40:36.575Z,94899.28
2019-04-21T18:43:53.145Z,94892.45
2019-04-21T18:46:26.037Z,94894.39
2019-04-21T18:48:53.394Z,94894.09
2019-04-21T18:51:53.956Z,94893.42
2019-04-21T18:54:41.447Z,94901.23
2019-04-21T18:57:07.866Z,94899.72
2019-04-21T18:59:39.810Z,94900.71
2019-04-21T19:02:13.889Z,94900.33
2019-04-21T19:04:48.390Z,94903.87
2019-04-21T19:07:37.820Z,94903.44
2019-04-21T19:10:22.237Z,94901.97
2019-04-21T19:13:31.642Z,94905.83
2019-04-21T19:15:20.273Z,94911.00
2019-04-21T19:18:27.792Z,94908.22
2019-04-21T19:20:50.330Z,94912.75
2019-04-21T19:23:11.527Z,94910.50
2019-04-21T19:25:46.599Z,94911.63
2019-04-21T19:28:24.621Z,94911.27
2019-04-21T19:31:04.377Z,94906.11
2019-04-21T19:33:34.646Z,94905.16
2019-04-21T19:35:57.288Z,94906.84
2019-04-21T19:38:43.540Z,94909.19
2019-04-21T19:41:24.680Z,94904.34
2019-04-21T19:44:01.485Z,94909.75
2019-04-21T19:46:33.319Z,94901.22
2019-04-21T19:49:10.345Z,94899.73
2019-04-21T19:51:37.893Z,94904.25
2019-04-21T19:54:06.400Z,94900.42
2019-04-21T19:56:35.171Z,94902.42
2019-04-21T19:59:10.796Z,94906.27
2019-04-21T20:01:45.121Z,94902.55
2019-04-21T20:04:16.909Z,94900.04
2019-04-21T20:07:01.774Z,94896.63
2019-04-21T20:09:40.628Z,94891.52
2019-04-21T20:12:18.701Z,94892.63
2019-04-21T20:14:59.329Z,94894.02
2019-04-21T20:17:24.767Z,94892.71
2019-04-21T20:19:44.537Z,94886.20
2019-04-21T20:22:18.868Z,94887.63
2019-04-21T20:24:58.666Z,94885.22
2019-04-21T20:27:38.835Z,94878.29
2019-04-21T20:30:21.075Z,94885.48
2019-04-21T20:33:01.606Z,94875.08
2019-04-21T20:38:02.216Z,94880.72
2019-04-21T20:40:30.797Z,94875.70
2019-04-21T20:43:17.806Z,94874.89
2019-04-21T20:45:52.564Z,94875.78
2019-04-21T20:48:18.012Z,94875.86
2019-04-21T20:51:03.493Z,94868.05
2019-04-21T20:53:35.918Z,94871.75
2019-04-21T20:56:10.330Z,94859.88
2019-04-21T20:58:49.269Z,94860.52
2019-04-21T21:01:33.193Z,94866.33
2019-04-21T21:03:55.993Z,94849.69
2019-04-21T21:06:26.410Z,94848.12
2019-04-21T21:09:04.844Z,94852.91
2019-04-21T21:11:42.317Z,94851.88
2019-04-21T21:14:18.665Z,94847.66
2019-04-21T21:16:50.788Z,94845.71
2019-04-21T21:19:32.538Z,94841.87
2019-04-21T21:21:58.810Z,94838.19
2019-04-21T21:24:41.900Z,94834.69
2019-04-21T21:27:13.080Z,94840.45
2019-04-21T21:29:51.285Z,94837.39
2019-04-21T21:32:25.880Z,94839.77
2019-04-21T21:35:01.273Z,94834.56
2019-04-21T21:37:36.289Z,94836.16
2019-04-21T21:40:18.005Z,94838.88
2019-04-21T21:42:34.479Z,94836.09
2019-04-21T21:45:12.625Z,94829.86
2019-04-21T21:48:00.715Z,94828.23
2019-04-21T21:50:25.095Z,94847.09
2019-04-21T21:53:00.967Z,94837.89
2019-04-21T21:55:27.685Z,94845.71
2019-04-21T21:58:03.464Z,94841.19
2019-04-21T22:00:41.986Z,94841.69
2019-04-21T22:03:19.710Z,94843.02
2019-04-21T22:05:53.529Z,94835.22
2019-04-21T22:08:20.654Z,94835.94
2019-04-21T22:10:54.873Z,94834.23
2019-04-21T22:13:39.940Z,94839.83
2019-04-21T22:16:07.017Z,94832.50
2019-04-21T22:18:59.895Z,94831.25
2019-04-21T22:21:34.665Z,94829.12
2019-04-21T22:23:56.931Z,94822.39
2019-04-21T22:26:20.982Z,94822.33
2019-04-21T22:28:54.098Z,94815.41
2019-04-21T22:31:31.818Z,94818.01
2019-04-21T22:34:05.429Z,94811.48
2019-04-21T22:36:48.874Z,94803.07
2019-04-21T22:39:28.421Z,94809.59
2019-04-21T22:41:49.241Z,94803.17
2019-04-21T22:44:22.779Z,94801.55
2019-04-21T22:47:04.963Z,94804.26
2019-04-21T22:49:32.598Z,94808.45
2019-04-21T22:52:11.306Z,94806.96
2019-04-21T22:54:43.191Z,94807.88
2019-04-21T22:57:19.877Z,94797.08
2019-04-21T22:59:54.849Z,94796.16
2019-04-21T23:02:29.918Z,94789.43
2019-04-21T23:05:02.547Z,94795.30
2019-04-21T23:07:44.262Z,94801.02
2019-04-21T23:10:11.559Z,94798.84
2019-04-21T23:12:45.785Z,94790.63
2019-04-21T23:15:23.147Z,94786.13
2019-04-21T23:18:11.934Z,94780.02
2019-04-21T23:20:52.145Z,94776.67
2019-04-21T23:23:23.674Z,94771.51
2019-04-21T23:25:53.112Z,94773.73
2019-04-21T23:28:36.661Z,94772.19
2019-04-21T23:31:06.916Z,94768.05
2019-04-21T23:33:23.375Z,94773.97
2019-04-21T23:36:09.672Z,94771.38
2019-04-21T23:38:41.783Z,94765.08
2019-04-21T23:41:11.141Z,94760.24
2019-04-21T23:43:44.855Z,94757.54
2019-04-21T23:46:22.670Z,94752.98
2019-04-21T23:49:07.346Z,94754.14
2019-04-21T23:51:37.517Z,94761.38
2019-04-21T23:54:01.804Z,94754.67
2019-04-21T23:56:39.447Z,94753.84
2019-04-21T23:59:11.555Z,94757.92
